createdAt,value
2019-02-28T00:01:48.463Z,38.00
2019-02-28T00:07:02.668Z,37.90
2019-02-28T00:12:17.439Z,38.10
2019-02-28T00:17:31.823Z,38.20
2019-02-28T00:22:49.225Z,38.10
2019-02-28T00:28:02.293Z,38.20
2019-02-28T00:33:16.788Z,38.20
2019-02-28T00:38:31.482Z,38.30
2019-02-28T00:43:45.887Z,38.30
2019-02-28T00:49:00.201Z,38.40
2019-02-28T00:54:14.800Z,38.50
2019-02-28T00:59:31.696Z,38.60
2019-02-28T01:04:44.904Z,39.30
2019-02-28T01:10:01.355Z,38.60
2019-02-28T01:15:15.850Z,38.70
2019-02-28T01:20:30.309Z,38.80
2019-02-28T01:25:44.935Z,38.80
2019-02-28T01:31:02.191Z,38.80
2019-02-28T01:36:16.965Z,39.00
2019-02-28T01:41:30.866Z,39.00
2019-02-28T01:46:48.461Z,39.10
2019-02-28T01:52:01.193Z,39.10
2019-02-28T01:57:15.808Z,39.20
2019-02-28T02:02:30.003Z,39.20
2019-02-28T02:07:44.860Z,39.50
2019-02-28T02:12:59.390Z,39.30
2019-02-28T02:18:13.456Z,39.40
2019-02-28T02:23:27.919Z,39.50
2019-02-28T02:28:43.500Z,39.50
2019-02-28T02:33:57.892Z,39.70
2019-02-28T02:39:16.329Z,39.70
2019-02-28T02:44:31.892Z,39.70
2019-02-28T02:49:44.658Z,39.80
2019-02-28T02:54:59.145Z,39.80
2019-02-28T03:00:15.890Z,40.00
2019-02-28T03:05:34.910Z,40.00
2019-02-28T03:10:46.573Z,40.10
2019-02-28T03:16:00.935Z,40.10
2019-02-28T03:21:16.458Z,40.20
2019-02-28T03:26:31.150Z,40.30
2019-02-28T03:31:55.198Z,40.40
2019-02-28T03:37:02.861Z,40.40
2019-02-28T03:42:17.578Z,40.50
2019-02-28T03:47:32.098Z,40.50
2019-02-28T03:52:46.629Z,40.60
2019-02-28T03:58:05.508Z,40.60
2019-02-28T04:03:16.975Z,40.70
2019-02-28T04:08:31.283Z,40.80
2019-02-28T04:13:45.876Z,40.80
2019-02-28T04:19:00.387Z,40.80
2019-02-28T04:24:14.844Z,40.90
2019-02-28T04:29:31.128Z,40.90
2019-02-28T04:34:45.720Z,41.00
2019-02-28T04:40:02.184Z,41.10
2019-02-28T04:45:16.699Z,41.30
2019-02-28T04:50:32.266Z,41.20
2019-02-28T04:55:46.703Z,41.40
2019-02-28T05:01:01.788Z,41.40
2019-02-28T05:06:18.362Z,41.60
2019-02-28T05:11:33.682Z,41.60
2019-02-28T05:16:49.735Z,41.80
2019-02-28T05:22:04.357Z,41.80
2019-02-28T05:27:19.783Z,41.80
2019-02-28T05:32:35.567Z,42.00
2019-02-28T05:37:51.850Z,42.00
2019-02-28T05:43:06.066Z,42.00
2019-02-28T05:48:20.783Z,42.20
2019-02-28T05:53:35.189Z,42.20
2019-02-28T05:58:52.509Z,42.20
2019-02-28T06:04:05.727Z,42.40
2019-02-28T06:09:20.268Z,42.40
2019-02-28T06:14:48.816Z,42.50
2019-02-28T06:20:06.193Z,42.60
2019-02-28T06:25:24.113Z,42.60
2019-02-28T06:30:36.367Z,42.80
2019-02-28T06:35:53.567Z,42.90
2019-02-28T06:41:07.577Z,42.90
2019-02-28T06:46:22.886Z,43.00
2019-02-28T06:51:37.712Z,43.20
2019-02-28T06:56:54.102Z,44.10
2019-02-28T07:02:08.996Z,44.70
2019-02-28T07:07:24.509Z,44.30
2019-02-28T07:12:38.758Z,44.50
2019-02-28T07:17:53.466Z,44.60
2019-02-28T07:23:07.884Z,44.60
2019-02-28T07:28:23.160Z,44.80
2019-02-28T07:33:37.503Z,45.00
2019-02-28T07:38:52.188Z,45.20
2019-02-28T07:44:06.463Z,45.40
2019-02-28T07:49:21.021Z,45.60
2019-02-28T07:54:35.744Z,46.00
2019-02-28T07:59:51.145Z,45.90
2019-02-28T08:05:06.425Z,46.00
2019-02-28T08:10:21.285Z,46.10
2019-02-28T08:15:36.136Z,46.20
2019-02-28T08:20:50.337Z,46.40
2019-02-28T08:26:08.098Z,46.50
2019-02-28T08:31:22.417Z,46.70
2019-02-28T08:36:36.795Z,46.90
2019-02-28T08:41:51.133Z,47.00
2019-02-28T08:47:05.609Z,47.10
2019-02-28T08:52:19.653Z,47.30
2019-02-28T08:57:34.237Z,47.50
2019-02-28T09:02:52.427Z,47.70
2019-02-28T09:08:05.445Z,48.00
2019-02-28T09:13:20.064Z,48.40
2019-02-28T09:18:34.776Z,48.60
2019-02-28T09:23:49.302Z,49.10
2019-02-28T09:29:03.601Z,49.90
2019-02-28T09:34:17.925Z,50.50
2019-02-28T09:39:32.681Z,50.60
2019-02-28T09:44:46.847Z,50.90
2019-02-28T09:50:01.226Z,51.30
2019-02-28T09:55:15.766Z,51.50
2019-02-28T10:00:30.579Z,52.00
2019-02-28T10:05:44.944Z,52.20
2019-02-28T10:10:59.044Z,54.60
2019-02-28T10:16:13.576Z,55.50
2019-02-28T10:21:29.534Z,54.70
2019-02-28T10:26:43.915Z,54.10
2019-02-28T10:31:58.488Z,53.40
2019-02-28T10:37:13.038Z,52.40
2019-02-28T10:42:27.633Z,52.20
2019-02-28T10:47:41.983Z,53.20
2019-02-28T10:52:56.647Z,53.10
2019-02-28T10:58:12.457Z,52.30
2019-02-28T11:03:31.710Z,51.20
2019-02-28T11:08:47.466Z,50.90
2019-02-28T11:14:03.959Z,50.60
2019-02-28T11:19:18.665Z,50.50
2019-02-28T11:24:32.742Z,48.80
2019-02-28T11:29:47.287Z,48.30
2019-02-28T11:35:01.925Z,48.50
2019-02-28T11:40:18.591Z,48.10
2019-02-28T11:45:33.126Z,47.30
2019-02-28T11:50:47.588Z,46.50
2019-02-28T11:56:02.164Z,46.10
2019-02-28T12:01:16.788Z,45.70
2019-02-28T12:06:31.462Z,45.80
2019-02-28T12:11:46.060Z,44.80
2019-02-28T12:17:00.557Z,45.20
2019-02-28T12:22:15.236Z,45.10
2019-02-28T12:27:30.257Z,44.90
2019-02-28T12:32:44.538Z,45.10
2019-02-28T12:37:59.113Z,44.80
2019-02-28T12:43:13.634Z,41.70
2019-02-28T12:48:28.047Z,40.50
2019-02-28T12:53:42.608Z,39.50
2019-02-28T12:58:57.216Z,38.80
2019-02-28T13:04:20.015Z,38.20
2019-02-28T13:09:34.198Z,37.70
2019-02-28T13:14:48.682Z,37.50
2019-02-28T13:20:03.316Z,36.80
2019-02-28T13:25:19.371Z,35.80
2019-02-28T13:30:33.764Z,35.00
2019-02-28T13:35:47.920Z,34.40
2019-02-28T13:41:02.578Z,33.30
2019-02-28T13:46:17.269Z,32.60
2019-02-28T13:51:32.762Z,32.10
2019-02-28T13:56:47.728Z,31.80
2019-02-28T14:02:02.725Z,31.00
2019-02-28T14:07:17.384Z,30.80
2019-02-28T14:12:31.976Z,30.80
2019-02-28T14:17:46.254Z,31.50
2019-02-28T14:23:00.757Z,32.40
2019-02-28T14:28:16.531Z,33.20
2019-02-28T14:33:30.925Z,33.40
2019-02-28T14:38:45.538Z,34.10
2019-02-28T14:44:00.395Z,35.10
2019-02-28T14:49:14.566Z,35.20
2019-02-28T14:54:29.017Z,35.90
2019-02-28T14:59:43.723Z,36.20
2019-02-28T15:04:58.420Z,36.30
2019-02-28T15:10:14.681Z,36.70
2019-02-28T15:15:29.456Z,36.70
2019-02-28T15:20:43.907Z,36.90
2019-02-28T15:25:58.580Z,37.70
2019-02-28T15:31:13.692Z,37.50
2019-02-28T15:36:28.291Z,37.30
2019-02-28T15:41:42.761Z,37.50
2019-02-28T15:46:57.444Z,37.60
2019-02-28T15:52:14.350Z,37.90
2019-02-28T15:57:30.144Z,38.70
2019-02-28T16:02:44.944Z,39.40
2019-02-28T16:07:59.662Z,39.20
2019-02-28T16:13:14.353Z,39.60
2019-02-28T16:18:28.835Z,40.20
2019-02-28T16:23:43.690Z,40.60
2019-02-28T16:28:58.063Z,41.10
2019-02-28T16:34:12.529Z,40.70
2019-02-28T16:39:27.211Z,40.50
2019-02-28T16:44:41.452Z,43.40
2019-02-28T16:49:56.123Z,46.10
2019-02-28T16:55:11.057Z,46.40
2019-02-28T17:00:26.304Z,46.50
2019-02-28T17:05:40.610Z,47.00
2019-02-28T17:10:55.234Z,47.50
2019-02-28T17:16:42.323Z,47.80
2019-02-28T17:21:56.612Z,48.00
2019-02-28T17:27:45.340Z,48.30
2019-02-28T17:32:59.986Z,48.80
2019-02-28T17:38:14.467Z,49.70
2019-02-28T17:43:29.065Z,50.00
2019-02-28T17:49:09.172Z,50.30
2019-02-28T17:54:57.356Z,50.40
2019-02-28T18:00:41.262Z,50.30
2019-02-28T18:06:29.375Z,50.30
2019-02-28T18:12:34.221Z,50.40
2019-02-28T18:18:17.907Z,50.20
2019-02-28T18:24:14.540Z,50.20
2019-02-28T18:29:56.346Z,50.50
2019-02-28T18:35:10.635Z,51.20
2019-02-28T18:40:25.999Z,51.70
2019-02-28T18:45:41.473Z,52.60
2019-02-28T18:50:55.971Z,54.30
2019-02-28T19:01:24.806Z,56.10
2019-02-28T19:06:41.653Z,57.10
2019-02-28T19:11:56.295Z,57.40
2019-02-28T19:17:10.901Z,57.90
2019-02-28T19:22:25.300Z,58.30
2019-02-28T19:27:39.730Z,58.50
2019-02-28T19:32:54.174Z,58.80
2019-02-28T19:38:11.073Z,59.00
2019-02-28T19:43:25.793Z,59.10
2019-02-28T19:48:43.033Z,59.30
2019-02-28T19:53:57.826Z,59.50
2019-02-28T19:59:16.338Z,59.70
2019-02-28T20:04:30.934Z,60.00
2019-02-28T20:09:45.806Z,60.20
2019-02-28T20:15:00.658Z,60.30
2019-02-28T20:20:16.402Z,60.40
2019-02-28T20:25:38.009Z,61.00
2019-02-28T20:30:56.200Z,61.00
2019-02-28T20:36:10.758Z,61.70
2019-02-28T20:41:32.258Z,62.30
2019-02-28T20:47:06.075Z,63.00
2019-02-28T20:52:20.561Z,63.00
2019-02-28T20:57:37.968Z,63.50
2019-02-28T21:02:58.242Z,64.30
2019-02-28T21:08:16.037Z,65.20
2019-02-28T21:13:40.966Z,65.40
2019-02-28T21:18:55.417Z,65.80
2019-02-28T21:24:09.796Z,66.00
2019-02-28T21:29:26.793Z,66.20
2019-02-28T21:34:41.203Z,66.30
2019-02-28T21:39:57.810Z,66.00
2019-02-28T21:45:15.047Z,65.80
2019-02-28T21:50:29.797Z,65.60
2019-02-28T21:55:44.718Z,65.80
2019-02-28T22:00:59.538Z,66.00
2019-02-28T22:06:14.017Z,66.00
2019-02-28T22:11:28.812Z,66.40
2019-02-28T22:16:48.420Z,66.60
2019-02-28T22:22:06.166Z,66.80
2019-02-28T22:27:21.615Z,67.20
2019-02-28T22:32:49.513Z,67.20
2019-02-28T22:38:03.762Z,67.90
2019-02-28T22:43:18.075Z,68.60
2019-02-28T22:48:32.537Z,69.50
2019-02-28T22:53:51.558Z,69.80
2019-02-28T22:59:10.128Z,70.50
2019-02-28T23:04:24.938Z,70.70
2019-02-28T23:09:41.216Z,70.90
2019-02-28T23:14:55.555Z,71.30
2019-02-28T23:20:11.228Z,72.30
2019-02-28T23:25:25.999Z,74.00
2019-02-28T23:31:16.695Z,75.80
2019-02-28T23:36:31.209Z,79.50
2019-02-28T23:41:45.550Z,82.90
2019-02-28T23:47:00.025Z,86.40
2019-02-28T23:52:14.100Z,89.20
2019-02-28T23:57:28.748Z,91.70
